createdAt,value
2022-10-19T00:00:44.437Z,85.61
2022-10-19T00:03:41.683Z,84.65
2022-10-19T00:06:39.228Z,86.00
2022-10-19T00:09:36.530Z,85.93
2022-10-19T00:12:33.266Z,86.29
2022-10-19T00:15:30.340Z,87.22
2022-10-19T00:18:27.376Z,87.45
2022-10-19T00:21:24.445Z,88.29
2022-10-19T00:24:21.371Z,89.41
2022-10-19T00:27:17.926Z,87.43
2022-10-19T00:30:15.431Z,88.08
2022-10-19T00:33:12.473Z,88.89
2022-10-19T00:36:36.722Z,86.92
2022-10-19T00:39:34.103Z,85.75
2022-10-19T00:42:31.944Z,85.02
2022-10-19T00:45:29.173Z,84.94
2022-10-19T00:48:30.855Z,84.44
2022-10-19T00:51:28.553Z,86.17
2022-10-19T00:54:25.395Z,89.13
2022-10-19T00:57:22.126Z,90.92
2022-10-19T01:00:19.284Z,91.97
2022-10-19T01:03:16.010Z,92.87
2022-10-19T01:06:14.611Z,93.01
2022-10-19T01:09:11.184Z,89.93
2022-10-19T01:12:22.896Z,87.52
2022-10-19T01:15:10.458Z,86.31
2022-10-19T01:18:24.136Z,85.88
2022-10-19T01:21:42.511Z,87.21
2022-10-19T01:24:45.369Z,85.87
2022-10-19T01:28:10.355Z,86.39
2022-10-19T01:31:42.587Z,87.72
2022-10-19T01:35:01.636Z,88.56
2022-10-19T01:38:11.000Z,89.22
2022-10-19T01:41:27.333Z,88.36
2022-10-19T01:44:31.349Z,88.53
2022-10-19T01:48:02.264Z,87.52
2022-10-19T01:51:01.865Z,87.85
2022-10-19T01:54:03.045Z,87.82
2022-10-19T01:57:00.339Z,87.87
2022-10-19T01:59:57.606Z,89.00
2022-10-19T02:02:54.571Z,88.58
2022-10-19T02:05:51.105Z,89.25
2022-10-19T02:08:49.114Z,91.93
2022-10-19T02:11:53.357Z,94.19
2022-10-19T02:14:54.718Z,94.48
2022-10-19T02:17:52.866Z,91.29
2022-10-19T02:20:50.307Z,90.02
2022-10-19T02:23:49.314Z,88.57
2022-10-19T02:26:49.356Z,88.35
2022-10-19T02:29:46.455Z,88.58
2022-10-19T02:32:43.644Z,88.57
2022-10-19T02:35:40.536Z,88.68
2022-10-19T02:38:37.301Z,89.69
2022-10-19T02:42:04.975Z,89.47
2022-10-19T02:45:24.455Z,89.30
2022-10-19T02:48:23.063Z,90.25
2022-10-19T02:51:34.814Z,92.27
2022-10-19T02:54:32.363Z,93.01
2022-10-19T02:57:29.141Z,91.52
2022-10-19T03:00:26.063Z,91.27
2022-10-19T03:03:23.532Z,91.94
2022-10-19T03:06:20.341Z,89.90
2022-10-19T03:09:17.567Z,90.42
2022-10-19T03:12:14.492Z,89.40
2022-10-19T03:15:15.376Z,89.33
2022-10-19T03:18:12.243Z,90.76
2022-10-19T03:21:11.136Z,92.13
2022-10-19T03:24:08.146Z,91.87
2022-10-19T03:27:05.257Z,93.65
2022-10-19T03:30:02.329Z,94.74
2022-10-19T03:32:59.396Z,94.12
2022-10-19T03:36:35.125Z,94.83
2022-10-19T03:39:32.186Z,97.74
2022-10-19T03:42:29.352Z,99.48
2022-10-19T03:45:26.389Z,99.30
2022-10-19T03:48:23.270Z,97.13
2022-10-19T03:51:25.010Z,94.08
2022-10-19T03:54:25.034Z,95.28
2022-10-19T03:57:24.570Z,94.21
2022-10-19T04:00:21.346Z,94.64
2022-10-19T04:03:18.557Z,98.34
2022-10-19T04:06:19.777Z,100.00
2022-10-19T04:09:20.597Z,100.00
2022-10-19T04:12:17.526Z,96.88
2022-10-19T04:15:14.687Z,98.18
2022-10-19T04:18:11.507Z,96.78
2022-10-19T04:21:21.234Z,94.26
2022-10-19T04:24:18.625Z,93.44
2022-10-19T04:27:15.663Z,94.41
2022-10-19T04:30:12.549Z,94.65
2022-10-19T04:33:09.129Z,92.04
2022-10-19T04:36:08.446Z,92.51
2022-10-19T04:39:05.311Z,92.59
2022-10-19T04:42:02.503Z,92.00
2022-10-19T04:44:59.615Z,93.31
2022-10-19T04:47:56.825Z,95.75
2022-10-19T04:50:55.756Z,96.24
2022-10-19T04:53:55.595Z,98.25
2022-10-19T04:56:55.419Z,100.00
2022-10-19T04:59:52.437Z,99.84
2022-10-19T05:02:49.590Z,97.00
2022-10-19T05:05:46.445Z,97.47
2022-10-19T05:08:43.753Z,98.78
2022-10-19T05:11:40.617Z,95.52
2022-10-19T05:14:39.099Z,94.74
2022-10-19T05:17:39.600Z,96.84
2022-10-19T05:20:36.517Z,99.31
2022-10-19T05:26:35.145Z,100.00
2022-10-19T05:29:33.978Z,100.00
2022-10-19T05:32:31.666Z,100.00
2022-10-19T05:35:28.675Z,100.00
2022-10-19T05:38:25.647Z,97.79
2022-10-19T05:41:22.868Z,98.28
2022-10-19T05:44:23.864Z,96.81
2022-10-19T05:47:21.529Z,98.48
2022-10-19T05:50:18.364Z,100.00
2022-10-19T05:53:15.490Z,100.00
2022-10-19T05:56:21.129Z,99.30
2022-10-19T05:59:19.329Z,100.00
2022-10-19T06:02:16.580Z,98.76
2022-10-19T06:05:13.497Z,99.53
2022-10-19T06:08:10.506Z,98.85
2022-10-19T06:11:10.972Z,99.44
2022-10-19T06:14:13.581Z,96.94
2022-10-19T06:17:10.831Z,94.90
2022-10-19T06:20:08.101Z,96.06
2022-10-19T06:23:05.730Z,98.45
2022-10-19T06:26:15.157Z,99.68
2022-10-19T06:29:12.402Z,100.00
2022-10-19T06:32:09.844Z,100.00
2022-10-19T06:35:07.159Z,100.00
2022-10-19T06:38:04.886Z,98.70
2022-10-19T06:41:02.406Z,97.82
2022-10-19T06:43:59.421Z,98.48
2022-10-19T06:46:56.286Z,100.00
2022-10-19T06:49:53.816Z,100.00
2022-10-19T06:52:50.631Z,97.49
2022-10-19T06:55:47.366Z,94.90
2022-10-19T06:58:44.791Z,97.40
2022-10-19T07:01:41.540Z,98.04
2022-10-19T07:04:38.870Z,98.15
2022-10-19T07:07:36.160Z,99.55
2022-10-19T07:10:33.856Z,99.31
2022-10-19T07:13:30.903Z,97.48
2022-10-19T07:16:27.442Z,98.37
2022-10-19T07:19:27.586Z,99.27
2022-10-19T07:22:28.090Z,97.64
2022-10-19T07:25:26.831Z,98.41
2022-10-19T07:28:23.659Z,97.48
2022-10-19T07:31:21.866Z,98.62
2022-10-19T07:34:18.569Z,96.94
2022-10-19T07:37:15.488Z,98.11
2022-10-19T07:40:13.252Z,96.82
2022-10-19T07:43:10.700Z,94.88
2022-10-19T07:46:18.733Z,94.52
2022-10-19T07:49:16.459Z,95.29
2022-10-19T07:52:13.873Z,94.33
2022-10-19T07:55:10.546Z,92.13
2022-10-19T07:58:07.469Z,92.81
2022-10-19T08:01:06.466Z,92.82
2022-10-19T08:07:20.828Z,90.64
2022-10-19T08:10:17.907Z,88.96
2022-10-19T08:13:14.734Z,89.56
2022-10-19T08:16:29.111Z,90.65
2022-10-19T08:19:26.709Z,90.09
2022-10-19T08:22:23.960Z,88.55
2022-10-19T08:25:21.789Z,87.45
2022-10-19T08:28:18.475Z,85.37
2022-10-19T08:31:17.480Z,85.48
2022-10-19T08:34:14.631Z,81.58
2022-10-19T08:37:26.126Z,80.60
2022-10-19T08:40:29.861Z,85.21
2022-10-19T08:43:38.523Z,85.28
2022-10-19T08:46:44.687Z,83.73
2022-10-19T08:49:41.605Z,82.35
2022-10-19T08:52:38.909Z,83.98
2022-10-19T08:56:03.744Z,84.47
2022-10-19T08:59:34.073Z,83.32
2022-10-19T09:02:41.189Z,84.67
2022-10-19T09:05:50.585Z,84.68
2022-10-19T09:08:48.624Z,83.93
2022-10-19T09:11:50.523Z,82.95
2022-10-19T09:14:55.228Z,83.73
2022-10-19T09:17:52.978Z,83.09
2022-10-19T09:20:50.847Z,82.66
2022-10-19T09:24:08.226Z,83.73
2022-10-19T09:27:05.761Z,82.21
2022-10-19T09:30:04.715Z,82.73
2022-10-19T09:33:02.355Z,83.55
2022-10-19T09:36:00.070Z,83.76
2022-10-19T09:38:57.757Z,84.41
2022-10-19T09:41:56.126Z,83.76
2022-10-19T09:44:53.611Z,83.90
2022-10-19T09:47:50.773Z,83.73
2022-10-19T09:50:51.859Z,81.42
2022-10-19T09:53:55.484Z,80.89
2022-10-19T09:56:53.747Z,81.60
2022-10-19T09:59:52.350Z,82.24
2022-10-19T10:02:51.318Z,80.16
2022-10-19T10:05:48.598Z,84.27
2022-10-19T10:08:47.509Z,80.42
2022-10-19T10:11:46.292Z,82.98
2022-10-19T10:14:44.065Z,82.44
2022-10-19T10:17:40.630Z,82.22
2022-10-19T10:20:37.633Z,83.14
2022-10-19T10:23:36.414Z,83.01
2022-10-19T10:26:42.211Z,82.55
2022-10-19T10:29:39.547Z,81.69
2022-10-19T10:32:38.464Z,80.45
2022-10-19T10:35:36.021Z,80.58
2022-10-19T10:38:44.114Z,80.57
2022-10-19T10:41:41.733Z,80.85
2022-10-19T10:44:39.306Z,79.94
2022-10-19T10:47:39.107Z,81.68
2022-10-19T10:50:36.804Z,81.13
2022-10-19T10:53:40.530Z,80.19
2022-10-19T10:56:40.865Z,79.98
2022-10-19T10:59:57.482Z,81.76
2022-10-19T11:02:57.538Z,80.56
2022-10-19T11:05:57.074Z,79.53
2022-10-19T11:09:16.655Z,80.11
2022-10-19T11:12:15.081Z,79.27
2022-10-19T11:15:14.122Z,78.11
2022-10-19T11:18:13.010Z,79.23
2022-10-19T11:21:11.713Z,78.63
2022-10-19T11:24:17.836Z,81.71
2022-10-19T11:27:34.986Z,81.38
2022-10-19T11:30:42.831Z,80.27
2022-10-19T11:36:48.658Z,79.66
2022-10-19T11:40:10.691Z,78.52
2022-10-19T11:43:14.706Z,75.49
2022-10-19T11:46:23.381Z,77.28
2022-10-19T11:49:43.465Z,79.61
2022-10-19T11:52:52.973Z,80.45
2022-10-19T11:56:04.718Z,77.39
2022-10-19T11:59:22.365Z,79.16
2022-10-19T12:02:22.663Z,79.15
2022-10-19T12:05:58.822Z,78.81
2022-10-19T12:09:13.524Z,78.41
2022-10-19T12:12:34.225Z,77.88
2022-10-19T12:15:44.242Z,78.40
2022-10-19T12:18:49.055Z,78.05
2022-10-19T12:21:45.853Z,78.79
2022-10-19T12:24:43.461Z,76.10
2022-10-19T12:27:41.062Z,77.73
2022-10-19T12:30:38.543Z,75.26
2022-10-19T12:33:43.999Z,73.36
2022-10-19T12:36:52.438Z,74.82
2022-10-19T12:39:54.011Z,75.51
2022-10-19T12:43:28.037Z,76.61
2022-10-19T12:46:36.256Z,76.61
2022-10-19T12:49:33.942Z,77.53
2022-10-19T12:52:34.745Z,77.61
2022-10-19T12:55:34.932Z,75.38
2022-10-19T12:58:36.464Z,76.79
2022-10-19T13:01:33.963Z,76.58
2022-10-19T13:04:32.492Z,76.05
2022-10-19T13:07:29.927Z,76.70
2022-10-19T13:10:27.591Z,77.05
2022-10-19T13:13:53.784Z,77.80
2022-10-19T13:17:00.885Z,75.85
2022-10-19T13:20:17.881Z,73.86
2022-10-19T13:23:18.057Z,72.98
2022-10-19T13:26:30.813Z,75.14
2022-10-19T13:29:48.754Z,74.74
2022-10-19T13:32:46.033Z,75.70
2022-10-19T13:35:43.015Z,76.26
2022-10-19T13:39:06.233Z,75.83
2022-10-19T13:42:02.703Z,77.82
2022-10-19T13:45:00.149Z,75.01
2022-10-19T13:48:01.528Z,74.80
2022-10-19T13:51:01.608Z,75.35
2022-10-19T13:54:36.108Z,77.46
2022-10-19T13:57:55.326Z,76.61
2022-10-19T14:01:11.917Z,77.01
2022-10-19T14:04:26.300Z,77.79
2022-10-19T14:07:26.631Z,76.96
2022-10-19T14:10:28.286Z,77.34
2022-10-19T14:13:29.993Z,77.07
2022-10-19T14:16:27.234Z,76.13
2022-10-19T14:19:27.295Z,75.95
2022-10-19T14:22:33.891Z,76.77
2022-10-19T14:25:32.844Z,74.33
2022-10-19T14:28:30.973Z,76.21
2022-10-19T14:31:33.895Z,75.76
2022-10-19T14:34:34.300Z,74.28
2022-10-19T14:37:31.821Z,75.71
2022-10-19T14:40:34.451Z,73.88
2022-10-19T14:43:32.840Z,75.68
2022-10-19T14:46:34.509Z,75.90
2022-10-19T14:49:32.003Z,76.41
2022-10-19T14:52:34.671Z,75.90
2022-10-19T14:55:34.366Z,76.37
2022-10-19T14:58:37.058Z,76.41
2022-10-19T15:01:34.084Z,78.54
2022-10-19T15:04:34.450Z,78.48
2022-10-19T15:07:39.412Z,77.82
2022-10-19T15:10:45.800Z,78.31
2022-10-19T15:13:43.016Z,78.43
2022-10-19T15:16:39.898Z,78.75
2022-10-19T15:19:36.889Z,76.94
2022-10-19T15:22:34.265Z,77.55
2022-10-19T15:25:37.099Z,75.35
2022-10-19T15:28:40.760Z,77.02
2022-10-19T15:31:38.969Z,76.03
2022-10-19T15:34:35.898Z,77.44
2022-10-19T15:37:33.103Z,78.77
2022-10-19T15:40:37.882Z,78.27
2022-10-19T15:43:39.269Z,79.43
2022-10-19T15:46:46.013Z,79.67
2022-10-19T15:49:42.842Z,79.20
2022-10-19T15:52:40.163Z,79.03
2022-10-19T15:55:37.126Z,78.70
2022-10-19T15:58:35.929Z,80.65
2022-10-19T16:01:39.111Z,81.02
2022-10-19T16:04:38.974Z,81.37
2022-10-19T16:07:37.553Z,81.98
2022-10-19T16:10:34.906Z,81.14
2022-10-19T16:13:32.370Z,80.44
2022-10-19T16:16:33.222Z,80.34
2022-10-19T16:19:30.579Z,81.56
2022-10-19T16:22:28.086Z,82.34
2022-10-19T16:25:25.178Z,81.94
2022-10-19T16:28:23.677Z,81.63
2022-10-19T16:31:21.041Z,80.24
2022-10-19T16:34:18.025Z,81.45
2022-10-19T16:37:14.943Z,81.38
2022-10-19T16:40:11.951Z,81.72
2022-10-19T16:43:09.025Z,80.81
2022-10-19T16:46:06.235Z,81.59
2022-10-19T16:49:03.165Z,81.64
2022-10-19T16:52:01.629Z,81.30
2022-10-19T16:54:59.729Z,81.11
2022-10-19T16:57:57.195Z,81.49
2022-10-19T17:00:56.236Z,83.73
2022-10-19T17:03:53.307Z,84.71
2022-10-19T17:06:50.128Z,85.15
2022-10-19T17:09:49.794Z,85.01
2022-10-19T17:12:49.813Z,84.55
2022-10-19T17:15:47.360Z,84.49
2022-10-19T17:18:44.087Z,84.69
2022-10-19T17:21:42.500Z,83.83
2022-10-19T17:24:40.178Z,83.78
2022-10-19T17:27:36.951Z,83.47
2022-10-19T17:30:34.011Z,82.97
2022-10-19T17:33:31.101Z,83.64
2022-10-19T17:36:29.908Z,84.81
2022-10-19T17:39:29.079Z,84.43
2022-10-19T17:42:27.023Z,85.93
2022-10-19T17:45:24.017Z,85.90
2022-10-19T17:48:21.078Z,85.81
2022-10-19T17:51:27.244Z,85.50
2022-10-19T17:54:24.081Z,86.49
2022-10-19T17:57:20.940Z,87.39
2022-10-19T18:00:18.001Z,87.58
2022-10-19T18:03:14.775Z,87.74
2022-10-19T18:06:20.830Z,86.76
2022-10-19T18:09:18.108Z,86.15
2022-10-19T18:12:15.165Z,85.75
2022-10-19T18:15:12.236Z,85.41
2022-10-19T18:18:09.069Z,85.03
2022-10-19T18:21:07.104Z,84.27
2022-10-19T18:24:04.237Z,85.60
2022-10-19T18:27:01.023Z,85.53
2022-10-19T18:29:57.957Z,85.75
2022-10-19T18:32:54.732Z,87.00
2022-10-19T18:35:52.650Z,86.59
2022-10-19T18:38:53.627Z,86.89
2022-10-19T18:41:54.594Z,88.02
2022-10-19T18:44:52.056Z,88.71
2022-10-19T18:47:48.858Z,88.60
2022-10-19T18:50:46.518Z,88.73
2022-10-19T18:53:44.419Z,89.50
2022-10-19T18:56:41.133Z,90.89
2022-10-19T18:59:38.271Z,90.74
2022-10-19T19:02:45.772Z,90.69
2022-10-19T19:05:44.024Z,90.42
2022-10-19T19:08:41.205Z,90.61
2022-10-19T19:11:39.283Z,89.83
2022-10-19T19:14:35.940Z,90.72
2022-10-19T19:17:33.561Z,90.69
2022-10-19T19:20:31.455Z,90.48
2022-10-19T19:23:28.377Z,90.44
2022-10-19T19:26:26.583Z,90.53
2022-10-19T19:29:24.707Z,90.16
2022-10-19T19:32:22.644Z,90.07
2022-10-19T19:35:21.515Z,90.28
2022-10-19T19:38:19.225Z,89.13
2022-10-19T19:41:16.634Z,88.78
2022-10-19T19:44:14.420Z,88.86
2022-10-19T19:47:11.332Z,88.85
2022-10-19T19:50:09.061Z,89.09
2022-10-19T19:53:06.100Z,89.71
2022-10-19T19:56:04.049Z,90.13
2022-10-19T19:59:03.770Z,90.01
2022-10-19T20:02:01.872Z,89.84
2022-10-19T20:04:59.566Z,89.81
2022-10-19T20:07:57.397Z,89.68
2022-10-19T20:10:53.993Z,89.83
2022-10-19T20:13:51.406Z,90.53
2022-10-19T20:16:48.330Z,90.22
2022-10-19T20:19:45.130Z,89.95
2022-10-19T20:22:46.194Z,90.05
2022-10-19T20:25:43.385Z,90.23
2022-10-19T20:28:40.346Z,89.84
2022-10-19T20:31:40.544Z,89.61
2022-10-19T20:34:38.457Z,90.11
2022-10-19T20:37:36.275Z,90.91
2022-10-19T20:40:33.576Z,91.68
2022-10-19T20:43:31.395Z,91.66
2022-10-19T20:46:29.337Z,92.01
2022-10-19T20:49:26.299Z,92.39
2022-10-19T20:52:23.371Z,92.45
2022-10-19T20:55:22.093Z,92.38
2022-10-19T20:58:19.183Z,92.25
2022-10-19T21:01:19.506Z,91.60
2022-10-19T21:04:16.187Z,91.48
2022-10-19T21:07:13.621Z,92.87
2022-10-19T21:10:11.486Z,93.25
2022-10-19T21:13:08.626Z,94.36
2022-10-19T21:16:17.793Z,95.16
2022-10-19T21:19:17.033Z,95.05
2022-10-19T21:22:14.067Z,95.06
2022-10-19T21:25:10.990Z,94.60
2022-10-19T21:28:08.502Z,94.52
2022-10-19T21:31:08.734Z,94.50
2022-10-19T21:34:07.251Z,94.45
2022-10-19T21:37:04.291Z,93.29
2022-10-19T21:40:01.531Z,93.11
2022-10-19T21:42:58.654Z,92.86
2022-10-19T21:45:56.318Z,93.11
2022-10-19T21:48:54.041Z,93.17
2022-10-19T21:51:54.528Z,91.95
2022-10-19T21:54:51.612Z,92.23
2022-10-19T21:57:49.104Z,93.52
2022-10-19T22:00:46.089Z,94.15
2022-10-19T22:03:43.527Z,94.73
2022-10-19T22:06:40.574Z,96.41
2022-10-19T22:09:38.445Z,96.79
2022-10-19T22:12:35.653Z,95.87
2022-10-19T22:15:37.428Z,96.22
2022-10-19T22:18:34.581Z,95.85
2022-10-19T22:21:31.575Z,95.61
2022-10-19T22:24:28.249Z,94.95
2022-10-19T22:27:25.062Z,94.54
2022-10-19T22:30:22.474Z,94.12
2022-10-19T22:33:19.328Z,94.13
2022-10-19T22:36:16.474Z,94.10
2022-10-19T22:39:13.709Z,92.96
2022-10-19T22:42:11.366Z,91.73
2022-10-19T22:45:08.546Z,91.58
2022-10-19T22:48:05.394Z,91.39
2022-10-19T22:51:02.578Z,93.27
2022-10-19T22:53:59.514Z,95.03
2022-10-19T22:56:56.642Z,95.39
2022-10-19T22:59:53.429Z,95.62
2022-10-19T23:02:50.583Z,95.59
2022-10-19T23:05:47.601Z,95.00
2022-10-19T23:08:44.557Z,95.34
2022-10-19T23:11:41.397Z,96.55
2022-10-19T23:14:38.475Z,97.09
2022-10-19T23:17:35.546Z,96.43
2022-10-19T23:20:33.209Z,96.09
2022-10-19T23:23:30.834Z,97.04
2022-10-19T23:26:28.476Z,97.34
2022-10-19T23:29:25.199Z,97.98
2022-10-19T23:32:21.997Z,98.51
2022-10-19T23:35:19.307Z,98.27
2022-10-19T23:38:16.402Z,98.27
2022-10-19T23:41:13.126Z,98.77
2022-10-19T23:44:10.707Z,99.57
2022-10-19T23:47:07.105Z,100.00
2022-10-19T23:50:04.726Z,100.00
2022-10-19T23:53:01.811Z,100.00
2022-10-19T23:56:03.969Z,100.00
2022-10-19T23:59:01.307Z,100.00
